Terminal Aerodrome Forecast
Issued by NWS

Current Version | Previous Version | Text Only | Print | Product List | Glossary On
Versions: 1 2 3 4 5 6 7 8 9 10 11 12 13 14 15 16 17 18 19 20 21 22 23 24 25 26 27 28 29 30
000
FTUS43 KDMX 061120
TAFFOD
TAF
KFOD 061120Z 0612/0712 22011KT P6SM -SHRA SCT035 BKN070
     FM061600 18012KT P6SM VCTS SCT010 BKN025CB
     FM062000 34012KT P6SM SCT015 BKN035
     FM070000 01008KT P6SM SCT250=

USA.gov is the U.S. government's official web portal to all federal, state and local government web resources and services.